Terminal Aerodrome Forecast
Issued by NWS

Home | Current Version | Previous Version | Text Only | Print | Product List | Glossary On
Versions: 1 2 3 4 5 6 7 8 9 10 11 12 13 14
000
FTUS44 KTSA 111100
TAFXNA
TAF
KXNA 111120Z 1112/1212 09003KT P6SM BKN080
     FM111500 16006KT P6SM SCT250
     FM111900 19009KT P6SM SCT040
     FM120000 18003KT P6SM SCT250=

USA.gov is the U.S. government's official web portal to all federal, state and local government web resources and services.